Time;durP1;ratioP1;P1;durP2;ratioP2;P2;SDS_P1;SDS_P2;PMS_P1;PMS_P2;Temp;Humidity;BMP_temperature;BMP_pressure;BME280_temperature;BME280_humidity;BME280_pressure;Samples;Min_cycle;Max_cycle;Signal;HPM_P1;HPM_P2
2022/10/26 00:01:10;;;;;;;11.98;7.35;;;;;;;9.13;100.00;101346.75;5072822;28;20541;-51
2022/10/26 00:03:39;;;;;;;15.00;7.07;;;;;;;9.11;100.00;101332.88;5073854;28;20047;-51
2022/10/26 00:06:10;;;;;;;11.18;6.65;;;;;;;9.09;100.00;101327.69;5073931;28;20041;-51
2022/10/26 00:08:38;;;;;;;12.27;6.57;;;;;;;9.10;100.00;101332.00;5073875;28;20105;-51
2022/10/26 00:11:07;;;;;;;13.82;6.65;;;;;;;9.08;100.00;101318.13;5072473;28;20139;-51
2022/10/26 00:13:36;;;;;;;12.68;7.35;;;;;;;9.06;100.00;101319.13;5073631;28;20110;-51
2022/10/26 00:16:10;;;;;;;16.25;7.53;;;;;;;9.08;100.00;101315.50;5073477;28;20487;-51
2022/10/26 00:18:40;;;;;;;11.38;7.38;;;;;;;9.05;100.00;101310.41;5073509;28;20036;-50
2022/10/26 00:21:09;;;;;;;12.80;6.97;;;;;;;9.08;100.00;101315.50;5070974;28;20048;-53
2022/10/26 00:23:38;;;;;;;15.98;7.35;;;;;;;9.09;100.00;101303.22;5069171;28;20804;-51
2022/10/26 00:26:09;;;;;;;13.55;7.55;;;;;;;9.10;100.00;101304.91;5073409;28;20048;-51
2022/10/26 00:28:38;;;;;;;12.15;7.38;;;;;;;9.16;100.00;101307.22;5073262;28;20399;-50
2022/10/26 00:31:08;;;;;;;12.93;7.50;;;;;;;9.18;100.00;101300.13;5072847;28;20525;-51
2022/10/26 00:33:38;;;;;;;13.10;7.55;;;;;;;9.21;100.00;101302.56;5073091;28;20469;-51
2022/10/26 00:36:08;;;;;;;15.57;7.65;;;;;;;9.20;100.00;101300.03;5071516;28;20059;-53
2022/10/26 00:38:36;;;;;;;12.02;7.15;;;;;;;9.19;100.00;101298.34;5073016;28;20070;-49
2022/10/26 00:41:04;;;;;;;12.25;7.15;;;;;;;9.16;100.00;101296.72;5073087;28;20140;-48
2022/10/26 00:43:39;;;;;;;13.80;7.45;;;;;;;9.21;100.00;101297.31;5072782;28;20101;-53
2022/10/26 00:46:15;;;;;;;11.88;7.07;;;;;;;9.16;100.00;101293.25;5072680;28;20475;-50
2022/10/26 00:48:49;;;;;;;11.55;7.03;;;;;;;9.20;100.00;101293.00;5072806;28;20487;-52
2022/10/26 00:51:24;;;;;;;13.48;7.35;;;;;;;9.20;100.00;101292.16;5072344;28;20044;-52
2022/10/26 00:53:54;;;;;;;14.23;7.80;;;;;;;9.21;100.00;101294.69;5071626;28;20075;-52
2022/10/26 00:56:22;;;;;;;12.07;7.07;;;;;;;9.27;100.00;101299.66;5072587;28;20106;-50
2022/10/26 00:58:51;;;;;;;17.40;7.90;;;;;;;9.28;100.00;101298.72;5072916;28;20045;-52
2022/10/26 01:01:19;;;;;;;12.50;6.80;;;;;;;9.23;100.00;101299.88;5072492;28;20056;-52
2022/10/26 01:03:49;;;;;;;11.35;6.18;;;;;;;9.25;100.00;101296.25;5072528;28;20048;-49
2022/10/26 01:06:18;;;;;;;12.68;7.20;;;;;;;9.25;100.00;101287.53;5072500;28;20507;-53
2022/10/26 01:08:48;;;;;;;12.50;6.78;;;;;;;9.26;100.00;101289.22;5071260;28;20041;-49
2022/10/26 01:11:16;;;;;;;11.20;6.97;;;;;;;9.24;100.00;101291.94;5069385;28;20375;-47
2022/10/26 01:13:46;;;;;;;11.55;7.20;;;;;;;9.24;100.00;101289.31;5067718;28;20056;-55
2022/10/26 01:16:29;;;;;;;11.75;7.15;;;;;;;9.28;100.00;101289.97;5072310;28;20115;-49
2022/10/26 01:19:19;;;;;;;11.10;6.97;;;;;;;9.28;100.00;101284.72;5072370;28;20131;-49
2022/10/26 01:21:54;;;;;;;12.90;6.30;;;;;;;9.30;100.00;101277.66;5072427;28;20048;-49
2022/10/26 01:24:44;;;;;;;13.95;7.25;;;;;;;9.36;100.00;101277.31;5072448;28;20059;-49
2022/10/26 01:27:22;;;;;;;12.20;6.80;;;;;;;9.35;100.00;101272.13;5072339;28;20032;-49
2022/10/26 01:30:19;;;;;;;14.05;6.40;;;;;;;9.37;100.00;101263.25;5071756;28;20059;-52
2022/10/26 01:33:24;;;;;;;12.00;6.82;;;;;;;9.37;100.00;101267.66;5071731;28;20048;-51
2022/10/26 01:36:01;;;;;;;15.18;6.93;;;;;;;9.38;100.00;101250.97;5070160;28;20504;-51
2022/10/26 01:38:34;;;;;;;12.07;6.32;;;;;;;9.40;100.00;101254.38;5071820;28;20052;-49
2022/10/26 01:41:11;;;;;;;14.13;6.65;;;;;;;9.39;100.00;101252.66;5072201;28;20052;-52
2022/10/26 01:43:43;;;;;;;12.90;6.30;;;;;;;9.43;100.00;101244.53;5072050;28;20052;-49
2022/10/26 01:46:15;;;;;;;12.75;6.53;;;;;;;9.47;100.00;101239.97;5072275;28;20044;-50
2022/10/26 01:48:45;;;;;;;14.88;6.80;;;;;;;9.45;100.00;101232.19;5072240;28;20135;-52
2022/10/26 01:51:15;;;;;;;15.18;6.55;;;;;;;9.48;100.00;101223.31;5071808;28;20106;-51
2022/10/26 01:53:45;;;;;;;15.88;7.25;;;;;;;9.42;100.00;101215.75;5067575;28;20467;-51
2022/10/26 01:56:19;;;;;;;14.98;6.47;;;;;;;9.43;100.00;101212.19;5069782;28;20061;-51
2022/10/26 01:59:17;;;;;;;15.73;7.65;;;;;;;9.46;100.00;101210.25;5073415;28;20080;-52
2022/10/26 02:02:14;;;;;;;13.43;6.68;;;;;;;9.47;100.00;101221.59;5076614;28;20058;-52
2022/10/26 02:04:57;;;;;;;15.75;7.40;;;;;;;9.42;100.00;101248.09;5076184;28;20127;-50
2022/10/26 02:07:27;;;;;;;;;;;;;;;9.35;100.00;101249.34;5076634;28;20098;-49
2022/10/26 02:10:02;;;;;;;11.68;5.80;;;;;;;9.38;100.00;101250.97;5075845;28;20451;-52
2022/10/26 02:12:45;;;;;;;11.93;6.07;;;;;;;9.38;100.00;101246.59;5076013;28;20435;-49
2022/10/26 02:15:20;;;;;;;12.50;5.30;;;;;;;9.41;100.00;101250.81;5075758;28;20572;-51
2022/10/26 02:17:53;;;;;;;11.63;5.88;;;;;;;9.38;100.00;101243.09;5075510;28;20110;-50
2022/10/26 02:20:25;;;;;;;11.77;6.00;;;;;;;9.33;100.00;101234.63;5075417;28;20048;-50
2022/10/26 02:22:56;;;;;;;10.27;5.65;;;;;;;9.34;100.00;101228.44;5075767;28;20064;-53
2022/10/26 02:25:27;;;;;;;12.98;6.03;;;;;;;9.33;100.00;101218.88;5074423;28;20048;-52
2022/10/26 02:27:59;;;;;;;12.90;5.78;;;;;;;9.39;100.00;101222.00;5074584;28;20581;-49
2022/10/26 02:30:27;;;;;;;11.70;6.55;;;;;;;9.40;100.00;101222.88;5075347;28;20055;-49
2022/10/26 02:32:59;;;;;;;13.20;6.90;;;;;;;9.39;100.00;101215.91;5075502;28;20399;-49
2022/10/26 02:35:32;;;;;;;13.20;7.17;;;;;;;9.42;100.00;101218.38;5075439;28;20067;-49
2022/10/26 02:38:04;;;;;;;11.52;6.03;;;;;;;9.44;100.00;101221.78;5075453;28;20045;-52
2022/10/26 02:40:33;;;;;;;14.18;6.95;;;;;;;9.50;100.00;101212.72;5075228;28;20095;-50
2022/10/26 02:43:06;;;;;;;10.57;6.07;;;;;;;9.50;100.00;101212.72;5075231;28;20384;-50
2022/10/26 02:45:39;;;;;;;11.32;6.18;;;;;;;9.55;100.00;101208.06;5075071;28;20049;-51
2022/10/26 02:48:08;;;;;;;12.65;5.97;;;;;;;9.52;100.00;101206.44;5075157;28;20060;-52
2022/10/26 02:50:44;;;;;;;16.98;6.70;;;;;;;9.50;100.00;101192.53;5074931;28;20521;-52
2022/10/26 02:53:21;;;;;;;10.02;6.25;;;;;;;9.51;100.00;101190.78;5075052;28;20051;-52
2022/10/26 02:55:52;;;;;;;12.65;6.53;;;;;;;9.50;100.00;101192.53;5074173;28;20067;-53
2022/10/26 02:58:26;;;;;;;9.98;6.53;;;;;;;9.52;100.00;101188.06;5071035;28;20456;-48
2022/10/26 03:00:55;;;;;;;14.40;6.97;;;;;;;9.58;100.00;101187.72;5071671;28;20044;-50
2022/10/26 03:03:25;;;;;;;16.35;7.13;;;;;;;9.57;100.00;101188.66;5073156;28;20047;-52
2022/10/26 03:05:53;;;;;;;12.40;7.25;;;;;;;9.57;100.00;101195.69;5074560;28;20060;-51
2022/10/26 03:08:21;;;;;;;15.25;7.65;;;;;;;9.58;100.00;101195.59;5074651;28;20513;-51
2022/10/26 03:10:50;;;;;;;15.82;8.02;;;;;;;9.61;100.00;101195.44;5074264;28;20049;-49
2022/10/26 03:13:18;;;;;;;13.30;7.03;;;;;;;9.64;100.00;101184.75;5074782;28;20544;-51
2022/10/26 03:15:46;;;;;;;11.68;7.05;;;;;;;9.70;100.00;101177.47;5074907;28;20399;-51
2022/10/26 03:18:14;;;;;;;15.30;7.45;;;;;;;9.71;100.00;101187.88;5074286;28;20511;-48
2022/10/26 03:20:45;;;;;;;13.93;7.55;;;;;;;9.73;100.00;101186.00;5074497;28;20059;-50
2022/10/26 03:23:13;;;;;;;12.10;7.03;;;;;;;9.74;100.00;101186.88;5073224;28;20117;-52
2022/10/26 03:25:41;;;;;;;13.32;7.13;;;;;;;9.75;100.00;101191.19;5074389;28;20128;-52
2022/10/26 03:28:09;;;;;;;12.55;6.90;;;;;;;9.79;100.00;101195.34;5074453;28;20119;-51
2022/10/26 03:30:37;;;;;;;11.18;6.70;;;;;;;9.80;100.00;101197.03;5074468;28;20192;-48
2022/10/26 03:33:05;;;;;;;14.15;7.60;;;;;;;9.83;100.00;101186.38;5074345;28;20053;-51
2022/10/26 03:35:33;;;;;;;12.05;6.93;;;;;;;9.88;100.00;101196.59;5073817;28;20057;-48
2022/10/26 03:38:03;;;;;;;12.05;6.88;;;;;;;9.90;100.00;101192.94;5073057;28;20084;-49
2022/10/26 03:40:31;;;;;;;12.75;7.07;;;;;;;9.93;100.00;101184.06;5074196;28;20547;-51
2022/10/26 03:42:59;;;;;;;14.30;6.95;;;;;;;9.93;100.00;101178.81;5074274;28;20475;-49
2022/10/26 03:45:27;;;;;;;12.98;7.13;;;;;;;9.94;100.00;101181.34;5073898;28;20068;-48
2022/10/26 03:47:55;;;;;;;9.98;6.63;;;;;;;9.99;100.00;101178.44;5074409;28;20037;-51
2022/10/26 03:50:23;;;;;;;12.65;6.80;;;;;;;10.00;100.00;101179.31;5074032;28;20425;-51
2022/10/26 03:52:51;;;;;;;12.85;7.00;;;;;;;10.03;100.00;101168.59;5074251;28;20395;-51
2022/10/26 03:55:21;;;;;;;14.27;6.80;;;;;;;10.04;100.00;101173.75;5073697;28;20057;-51
2022/10/26 03:57:49;;;;;;;13.73;6.63;;;;;;;10.09;100.00;101173.50;5074037;28;20052;-50
2022/10/26 04:00:18;;;;;;;12.35;6.57;;;;;;;10.07;100.00;101168.31;5070672;28;20080;-48
2022/10/26 04:02:53;;;;;;;12.73;6.57;;;;;;;10.06;100.00;101164.03;5071168;28;20082;-50
2022/10/26 04:05:21;;;;;;;13.55;6.30;;;;;;;10.07;100.00;101160.44;5072406;28;20048;-52
2022/10/26 04:07:53;;;;;;;12.00;6.75;;;;;;;10.09;100.00;101162.97;5073575;28;20464;-53
2022/10/26 04:10:23;;;;;;;13.07;6.25;;;;;;;10.06;100.00;101166.66;5073342;28;20491;-53
2022/10/26 04:12:51;;;;;;;12.13;6.32;;;;;;;10.07;100.00;101164.88;5073412;28;20053;-50
2022/10/26 04:15:21;;;;;;;14.60;6.70;;;;;;;10.05;100.00;101172.84;5073032;28;20048;-53
2022/10/26 04:17:55;;;;;;;14.55;7.00;;;;;;;10.03;100.00;101172.06;5073250;28;20048;-48
2022/10/26 04:20:24;;;;;;;14.85;6.95;;;;;;;10.01;100.00;101168.69;5073091;28;20044;-47
2022/10/26 04:22:59;;;;;;;12.57;6.63;;;;;;;10.03;100.00;101165.97;5072876;28;20127;-49
2022/10/26 04:25:29;;;;;;;13.60;6.93;;;;;;;10.03;100.00;101168.59;5073130;28;20052;-52
2022/10/26 04:28:00;;;;;;;11.20;6.57;;;;;;;9.98;100.00;101174.97;5073267;28;20059;-49
2022/10/26 04:30:29;;;;;;;14.52;7.00;;;;;;;9.93;100.00;101174.38;5073200;28;20052;-50
2022/10/26 04:32:57;;;;;;;10.73;6.40;;;;;;;9.95;100.00;101171.66;5073248;28;20047;-52
2022/10/26 04:35:25;;;;;;;16.65;8.05;;;;;;;9.93;100.00;101168.28;5073186;28;20047;-51
2022/10/26 04:37:58;;;;;;;14.40;6.75;;;;;;;9.94;100.00;101168.19;5071857;28;20050;-48
2022/10/26 04:40:26;;;;;;;13.02;6.82;;;;;;;9.91;100.00;101173.63;5072810;28;20044;-49
2022/10/26 04:42:56;;;;;;;10.93;6.85;;;;;;;9.93;100.00;101168.28;5073323;28;20432;-50
2022/10/26 04:45:24;;;;;;;13.40;6.55;;;;;;;9.93;100.00;101174.38;5073071;28;20045;-52
2022/10/26 04:48:00;;;;;;;15.07;7.03;;;;;;;9.91;100.00;101164.88;5072998;28;20123;-52
2022/10/26 04:50:28;;;;;;;11.80;7.10;;;;;;;9.86;100.00;101167.78;5072826;28;20441;-51
2022/10/26 04:52:56;;;;;;;13.25;7.03;;;;;;;9.85;100.00;101173.97;5072834;28;20084;-51
2022/10/26 04:55:24;;;;;;;12.73;6.55;;;;;;;9.89;100.00;101170.22;5072467;28;20506;-51
2022/10/26 04:57:52;;;;;;;12.52;6.97;;;;;;;9.87;100.00;101169.50;5071610;28;20049;-49
2022/10/26 05:00:28;;;;;;;14.68;6.30;;;;;;;9.79;100.00;101172.53;5072818;28;20093;-48
2022/10/26 05:02:59;;;;;;;15.00;6.90;;;;;;;9.82;100.00;101177.63;5072766;28;20052;-57
2022/10/26 05:05:32;;;;;;;11.95;6.43;;;;;;;9.82;100.00;101167.09;5072864;28;20487;-54
2022/10/26 05:08:00;;;;;;;13.20;6.60;;;;;;;9.82;100.00;101161.03;5072575;28;20048;-56
2022/10/26 05:10:28;;;;;;;13.60;7.40;;;;;;;9.81;100.00;101170.66;5070140;28;20143;-55
2022/10/26 05:12:59;;;;;;;14.93;6.63;;;;;;;9.81;100.00;101165.41;5068859;28;20078;-53
2022/10/26 05:15:29;;;;;;;13.50;7.40;;;;;;;9.80;100.00;101157.63;5072247;28;20064;-56
2022/10/26 05:17:58;;;;;;;12.13;6.40;;;;;;;9.80;100.00;101158.47;5071433;28;20049;-58
2022/10/26 05:20:29;;;;;;;13.32;7.05;;;;;;;9.85;100.00;101158.22;5072395;28;20123;-54
2022/10/26 05:23:02;;;;;;;13.48;6.78;;;;;;;9.84;100.00;101155.69;5069128;28;20103;-54
2022/10/26 05:25:32;;;;;;;12.02;6.88;;;;;;;9.83;100.00;101152.22;5067737;28;20048;-54
2022/10/26 05:28:01;;;;;;;19.50;7.88;;;;;;;9.84;100.00;101155.69;5068297;28;20121;-55
2022/10/26 05:30:32;;;;;;;14.98;7.47;;;;;;;9.86;100.00;101145.91;5068725;28;20050;-54
2022/10/26 05:33:02;;;;;;;14.15;7.13;;;;;;;9.85;100.00;101152.94;5068387;28;20559;-55
2022/10/26 05:35:31;;;;;;;13.85;7.18;;;;;;;9.90;100.00;101163.22;5068251;28;20071;-56
2022/10/26 05:38:00;;;;;;;13.95;7.32;;;;;;;9.95;100.00;101148.00;5070800;28;20041;-55
2022/10/26 05:40:28;;;;;;;11.52;7.03;;;;;;;9.96;100.00;101153.19;5067660;28;20130;-55
2022/10/26 05:43:00;;;;;;;14.07;7.50;;;;;;;10.00;100.00;101155.66;5068722;28;20044;-53
2022/10/26 05:45:28;;;;;;;12.40;7.10;;;;;;;10.02;100.00;101159.88;5072260;28;20434;-55
2022/10/26 05:47:58;;;;;;;16.30;6.85;;;;;;;10.04;100.00;101165.03;5072157;28;20102;-56
2022/10/26 05:50:30;;;;;;;12.80;6.75;;;;;;;10.03;100.00;101161.56;5072072;28;20495;-56
2022/10/26 05:52:58;;;;;;;10.68;6.47;;;;;;;10.06;100.00;101164.03;5070369;28;20040;-56
2022/10/26 05:55:27;;;;;;;16.52;6.85;;;;;;;10.08;100.00;101166.56;5067000;28;20048;-56
2022/10/26 05:57:56;;;;;;;10.38;5.97;;;;;;;10.10;100.00;101167.31;5069718;28;20048;-55
2022/10/26 06:00:28;;;;;;;11.98;7.00;;;;;;;10.12;100.00;101166.28;5072228;28;20391;-55
2022/10/26 06:03:11;;;;;;;15.30;6.70;;;;;;;10.16;100.00;101169.59;5072242;28;20479;-56
2022/10/26 06:05:50;;;;;;;10.70;6.25;;;;;;;10.18;100.00;101172.97;5069610;28;20098;-56
2022/10/26 06:08:20;;;;;;;13.45;6.78;;;;;;;10.21;100.00;101178.06;5069779;28;20064;-55
2022/10/26 06:10:48;;;;;;;12.43;6.75;;;;;;;10.24;100.00;101175.25;5068050;28;20044;-56
2022/10/26 06:13:17;;;;;;;14.85;6.95;;;;;;;10.25;100.00;101179.56;5067770;28;20072;-56
2022/10/26 06:15:55;;;;;;;11.70;6.00;;;;;;;10.25;100.00;101182.19;5068897;28;20044;-55
2022/10/26 06:18:34;;;;;;;13.90;6.57;;;;;;;10.28;100.00;101187.28;5069028;28;20048;-56
2022/10/26 06:21:15;;;;;;;10.70;5.97;;;;;;;10.28;100.00;101181.16;5070178;28;20067;-56
2022/10/26 06:23:53;;;;;;;14.57;6.40;;;;;;;10.28;100.00;101187.28;5067267;28;20053;-57
2022/10/26 06:26:33;;;;;;;12.50;5.90;;;;;;;10.29;100.00;101183.72;5066922;28;20110;-55
2022/10/26 06:29:16;;;;;;;14.80;6.05;;;;;;;10.28;100.00;101178.53;5069182;28;20399;-55
2022/10/26 06:31:46;;;;;;;12.18;5.85;;;;;;;10.28;100.00;101178.53;5069857;28;20044;-56
2022/10/26 06:34:22;;;;;;;13.35;6.00;;;;;;;10.26;100.00;101185.66;5067619;28;20109;-56
2022/10/26 06:36:52;;;;;;;10.10;5.32;;;;;;;10.26;100.00;101191.75;5071350;28;20052;-56
2022/10/26 06:39:22;;;;;;;14.40;6.30;;;;;;;10.27;100.00;101187.38;5068852;28;20645;-56
2022/10/26 06:41:51;;;;;;;9.45;5.60;;;;;;;10.28;100.00;101197.78;5068657;28;20079;-56
2022/10/26 06:44:22;;;;;;;12.40;6.15;;;;;;;10.29;100.00;101193.38;5068328;28;20094;-56
2022/10/26 06:46:59;;;;;;;13.38;6.20;;;;;;;10.27;100.00;101182.94;5072245;28;20052;-54
2022/10/26 06:49:32;;;;;;;11.57;5.90;;;;;;;10.28;100.00;101189.91;5070392;28;20049;-56
2022/10/26 06:52:05;;;;;;;13.85;5.70;;;;;;;10.28;100.00;101187.28;5071758;28;20045;-56
2022/10/26 06:54:48;;;;;;;12.93;6.10;;;;;;;10.39;100.00;101191.06;5070118;28;20060;-56
2022/10/26 06:57:17;;;;;;;;;;;;;;;10.38;100.00;101192.88;5071989;28;20049;-56
2022/10/26 06:59:49;;;;;;;12.23;5.95;;;;;;;10.35;100.00;101190.41;5071676;28;19921;-56
2022/10/26 07:02:17;;;;;;;11.60;5.72;;;;;;;10.36;100.00;101189.50;5073710;28;20040;-56
2022/10/26 07:04:47;;;;;;;13.18;5.88;;;;;;;10.36;100.00;101186.88;5071906;28;20123;-56
2022/10/26 07:07:19;;;;;;;12.77;5.90;;;;;;;10.36;100.00;101184.25;5073191;28;20572;-55
2022/10/26 07:09:48;;;;;;;12.05;5.60;;;;;;;10.37;100.00;101185.06;5069873;28;20170;-54
2022/10/26 07:12:16;;;;;;;13.05;5.88;;;;;;;10.41;100.00;101189.22;5070469;28;20714;-55
2022/10/26 07:14:44;;;;;;;13.57;6.18;;;;;;;10.47;100.00;101192.31;5071459;28;20072;-56
2022/10/26 07:17:12;;;;;;;11.55;6.45;;;;;;;10.70;100.00;101184.81;5071161;28;20045;-57
2022/10/26 07:19:43;;;;;;;12.73;6.10;;;;;;;11.09;100.00;101172.81;5073402;28;20135;-57
2022/10/26 07:22:13;;;;;;;13.30;5.75;;;;;;;11.25;100.00;101180.59;5074458;28;20049;-54
2022/10/26 07:24:41;;;;;;;10.50;5.45;;;;;;;11.57;100.00;101169.81;5074626;28;20494;-56
2022/10/26 07:27:11;;;;;;;11.45;6.38;;;;;;;11.92;100.00;101176.41;5073109;28;20115;-54
2022/10/26 07:29:39;;;;;;;13.60;6.47;;;;;;;12.08;100.00;101186.78;5071562;28;20072;-56
2022/10/26 07:32:10;;;;;;;11.07;5.50;;;;;;;12.36;100.00;101192.88;5070998;28;20040;-55
2022/10/26 07:34:38;;;;;;;13.68;6.35;;;;;;;12.77;100.00;101197.13;5073894;28;20044;-55
2022/10/26 07:37:06;;;;;;;10.07;5.40;;;;;;;13.10;100.00;101201.00;5074243;28;20135;-56
2022/10/26 07:39:36;;;;;;;12.60;6.22;;;;;;;13.30;100.00;101205.72;5073898;28;20752;-56
2022/10/26 07:42:04;;;;;;;12.52;5.50;;;;;;;13.55;100.00;101209.28;5070377;28;20444;-56
2022/10/26 07:44:32;;;;;;;12.38;5.03;;;;;;;13.78;100.00;101199.69;5071261;28;20601;-56
2022/10/26 07:47:02;;;;;;;8.73;4.40;;;;;;;13.90;100.00;101200.59;5074779;28;20415;-56
2022/10/26 07:49:30;;;;;;;10.80;4.72;;;;;;;14.17;100.00;101207.44;5070713;28;20086;-55
2022/10/26 07:51:58;;;;;;;9.45;4.43;;;;;;;14.18;100.00;101202.03;5069815;28;20090;-58
2022/10/26 07:54:27;;;;;;;12.20;5.10;;;;;;;14.20;100.00;101204.56;5068600;28;22321;-57
2022/10/26 07:56:56;;;;;;;14.25;5.00;;;;;;;14.42;100.00;101202.94;5070537;28;20045;-56
2022/10/26 07:59:25;;;;;;;11.15;5.28;;;;;;;14.32;100.00;101208.09;5070839;28;20056;-58
2022/10/26 08:01:53;;;;;;;11.10;4.53;;;;;;;14.45;100.00;101202.72;5073327;28;20256;-58
2022/10/26 08:04:21;;;;;;;10.57;4.65;;;;;;;14.67;100.00;101204.59;5069830;28;20040;-58
2022/10/26 08:06:49;;;;;;;10.88;4.00;;;;;;;14.91;100.00;101207.16;5070785;28;20049;-57
2022/10/26 08:09:17;;;;;;;8.82;4.20;;;;;;;14.94;100.00;101208.72;5068405;28;20488;-58
2022/10/26 08:11:47;;;;;;;10.13;4.40;;;;;;;14.96;100.00;101217.41;5070079;28;20040;-58
2022/10/26 08:14:17;;;;;;;13.35;4.35;;;;;;;15.11;100.00;101218.84;5069472;28;20045;-58
2022/10/26 08:16:45;;;;;;;10.05;4.20;;;;;;;15.40;100.00;101222.81;5070370;28;20564;-58
2022/10/26 08:19:13;;;;;;;9.02;4.00;;;;;;;15.72;100.00;101223.72;5069058;28;20055;-58
2022/10/26 08:21:41;;;;;;;12.40;5.00;;;;;;;15.62;100.00;101233.34;5070510;28;20453;-58
2022/10/26 08:24:10;;;;;;;10.30;4.10;;;;;;;15.51;100.00;101228.91;5067709;28;20040;-58
2022/10/26 08:26:38;;;;;;;8.35;3.90;;;;;;;15.45;100.00;101223.28;5070149;28;20411;-58
2022/10/26 08:29:06;;;;;;;8.77;3.85;;;;;;;15.54;100.00;101222.53;5069868;28;20055;-58
2022/10/26 08:31:36;;;;;;;9.18;4.35;;;;;;;15.50;100.00;101226.38;5070126;28;20079;-60
2022/10/26 08:34:04;;;;;;;10.35;3.78;;;;;;;15.70;100.00;101233.59;5070550;28;20052;-58
2022/10/26 08:36:32;;;;;;;9.55;4.38;;;;;;;15.65;100.00;101243.75;5069920;28;20139;-58
2022/10/26 08:39:00;;;;;;;7.10;3.17;;;;;;;15.70;100.00;101244.19;5068113;28;20051;-58
2022/10/26 08:41:36;;;;;;;9.85;3.50;;;;;;;15.99;100.00;101246.34;5069187;28;20048;-58
2022/10/26 08:44:13;;;;;;;8.63;3.30;;;;;;;15.91;100.00;101248.78;5069614;28;20043;-58
2022/10/26 08:46:46;;;;;;;10.80;3.20;;;;;;;16.04;100.00;101245.94;5072829;28;20051;-60
2022/10/26 08:49:20;;;;;;;7.78;3.30;;;;;;;16.17;100.00;101249.28;5070440;28;20044;-58
2022/10/26 08:51:50;;;;;;;7.88;3.10;;;;;;;16.34;100.00;101255.84;5069201;28;20415;-58
2022/10/26 08:54:28;;;;;;;6.60;2.83;;;;;;;16.23;100.00;101246.09;5067440;28;20377;-59
2022/10/26 08:57:01;;;;;;;7.57;2.80;;;;;;;16.29;100.00;101250.09;5071718;28;20645;-59
2022/10/26 08:59:36;;;;;;;6.88;2.58;;;;;;;16.39;100.00;101256.28;5069645;28;20105;-59
2022/10/26 09:02:12;;;;;;;7.03;2.60;;;;;;;16.48;100.00;101249.38;5069066;28;20056;-59
2022/10/26 09:04:41;;;;;;;7.50;2.25;;;;;;;16.55;100.00;101252.34;5068792;28;20041;-59
2022/10/26 09:07:18;;;;;;;7.45;2.50;;;;;;;16.60;100.00;101251.97;5067603;28;20053;-59
2022/10/26 09:09:56;;;;;;;5.70;2.42;;;;;;;16.72;100.00;101259.75;5067072;28;20101;-59
2022/10/26 09:12:31;;;;;;;7.00;2.25;;;;;;;16.84;100.00;101257.03;5070741;28;20403;-59
2022/10/26 09:15:12;;;;;;;4.95;2.15;;;;;;;16.90;100.00;101249.38;5069309;28;20498;-60
2022/10/26 09:17:49;;;;;;;6.82;2.38;;;;;;;16.94;100.00;101260.59;5068461;28;20584;-59
2022/10/26 09:20:46;;;;;;;7.70;2.33;;;;;;;17.00;100.00;101270.72;5072607;28;20434;-59
2022/10/26 09:23:28;;;;;;;7.50;2.08;;;;;;;17.19;100.00;101271.75;5072216;28;20053;-59
2022/10/26 09:25:59;;;;;;;7.70;2.40;;;;;;;17.36;100.00;101271.16;5071639;28;20064;-59
2022/10/26 09:28:31;;;;;;;6.43;2.30;;;;;;;17.49;100.00;101276.25;5068701;28;20495;-60
2022/10/26 09:31:01;;;;;;;7.55;2.20;;;;;;;17.57;100.00;101272.88;5071140;28;20047;-59
2022/10/26 09:33:36;;;;;;;7.97;2.30;;;;;;;17.72;100.00;101268.91;5072440;28;20406;-60
2022/10/26 09:36:08;;;;;;;7.78;2.47;;;;;;;17.89;100.00;101267.38;5071839;28;20449;-59
2022/10/26 09:38:47;;;;;;;10.48;2.67;;;;;;;18.01;100.00;101264.59;5067112;28;20100;-60
2022/10/26 09:41:23;;;;;;;10.45;2.50;;;;;;;18.44;100.00;101259.88;5069281;28;20568;-60
2022/10/26 09:44:04;;;;;;;8.70;2.40;;;;;;;18.17;100.00;101264.91;5072443;28;20075;-59
2022/10/26 09:46:37;;;;;;;7.53;2.50;;;;;;;18.12;100.00;101260.97;5069304;28;20064;-59
2022/10/26 09:49:11;;;;;;;8.52;3.03;;;;;;;18.65;100.00;101252.56;5068398;28;20053;-59
2022/10/26 09:51:41;;;;;;;8.68;2.83;;;;;;;18.62;100.00;101252.81;5068975;28;20048;-59
2022/10/26 09:54:15;;;;;;;8.07;2.78;;;;;;;18.83;100.00;101258.00;5066581;28;20045;-59
2022/10/26 09:56:45;;;;;;;8.18;2.92;;;;;;;19.06;100.00;101260.31;5068348;28;20060;-59
2022/10/26 09:59:14;;;;;;;8.40;2.55;;;;;;;19.56;100.00;101265.28;5068008;28;20102;-59
2022/10/26 10:01:42;;;;;;;7.03;2.42;;;;;;;19.93;100.00;101274.22;5068629;28;20094;-55
2022/10/26 10:04:21;;;;;;;11.75;2.70;;;;;;;20.04;100.00;101275.84;5067328;28;20051;-55
2022/10/26 10:06:51;;;;;;;7.90;2.80;;;;;;;19.76;100.00;101278.53;5068268;28;20401;-55
2022/10/26 10:09:21;;;;;;;6.22;2.45;;;;;;;19.74;100.00;101276.03;5071246;28;20140;-55
2022/10/26 10:11:55;;;;;;;7.53;2.55;;;;;;;19.38;100.00;101285.75;5071938;28;20049;-55
2022/10/26 10:14:25;;;;;;;8.55;2.83;;;;;;;19.66;100.00;101297.28;5071897;28;20098;-55
2022/10/26 10:16:55;;;;;;;9.63;3.30;;;;;;;19.66;100.00;101309.75;5070604;28;20060;-56
2022/10/26 10:19:27;;;;;;;7.53;3.10;;;;;;;19.78;100.00;101311.22;5070959;28;20091;-55
2022/10/26 10:21:58;;;;;;;9.85;3.40;;;;;;;20.06;100.00;101327.28;5075633;28;20135;-56
2022/10/26 10:24:28;;;;;;;9.02;3.45;;;;;;;20.21;100.00;101333.75;5075363;28;20411;-60
2022/10/26 10:26:59;;;;;;;8.48;2.97;;;;;;;20.40;100.00;101330.09;5074203;28;20056;-60
2022/10/26 10:29:29;;;;;;;7.35;2.70;;;;;;;20.36;100.00;101328.72;5075312;28;20510;-60
2022/10/26 10:31:58;;;;;;;8.60;2.85;;;;;;;20.34;100.00;101336.06;5075632;28;20123;-60
2022/10/26 10:34:30;;;;;;;5.57;2.78;;;;;;;20.67;100.00;101338.16;5075457;28;20049;-60
2022/10/26 10:37:00;;;;;;;7.90;3.28;;;;;;;21.10;100.00;101340.06;5075455;28;20048;-60
2022/10/26 10:39:38;;;;;;;7.18;3.10;;;;;;;21.16;100.00;101338.59;5073249;28;20453;-60
2022/10/26 10:42:17;;;;;;;10.98;3.15;;;;;;;21.46;100.00;101339.09;5071212;28;20135;-61
2022/10/26 10:44:46;;;;;;;5.70;2.70;;;;;;;22.02;100.00;101344.00;5072254;28;20052;-61
2022/10/26 10:47:21;;;;;;;9.77;3.45;;;;;;;21.73;100.00;101338.06;5072990;28;20044;-60
2022/10/26 10:49:58;;;;;;;10.32;3.28;;;;;;;22.41;100.00;101341.56;5075185;28;20117;-55
2022/10/26 10:52:30;;;;;;;8.38;2.80;;;;;;;22.28;100.00;101342.03;5075265;28;20094;-55
2022/10/26 10:55:17;;;;;;;9.15;3.13;;;;;;;22.35;100.00;101344.09;5074971;28;20048;-55
2022/10/26 10:58:00;;;;;;;8.13;2.95;;;;;;;22.48;100.00;101357.81;5075284;28;20052;-56
2022/10/26 11:00:28;;;;;;;8.95;3.30;;;;;;;22.45;100.00;101353.66;5073604;28;20519;-56
2022/10/26 11:03:22;;;;;;;6.25;2.50;;;;;;;22.43;100.00;101350.31;5074994;28;20059;-56
2022/10/26 11:06:08;;;;;;;6.13;2.42;;;;;;;22.20;100.00;101351.91;5075193;28;20033;-56
2022/10/26 11:08:43;;;;;;;8.20;2.72;;;;;;;22.50;100.00;101358.50;5074738;28;20419;-56
2022/10/26 11:11:18;;;;;;;10.98;2.88;;;;;;;22.82;100.00;101364.88;5074835;28;20052;-55
2022/10/26 11:13:52;;;;;;;10.23;3.03;;;;;;;22.58;100.00;101361.19;5074882;28;20576;-56
2022/10/26 11:16:24;;;;;;;7.82;2.72;;;;;;;22.46;94.12;101362.53;5074566;28;20102;-56
2022/10/26 11:18:57;;;;;;;8.50;2.45;;;;;;;22.73;94.63;101364.06;5074351;28;20399;-56
2022/10/26 11:21:29;;;;;;;8.18;2.90;;;;;;;22.79;92.83;101368.72;5074057;28;20495;-56
2022/10/26 11:24:09;;;;;;;10.05;2.70;;;;;;;22.69;93.74;101373.44;5074285;28;20071;-57
2022/10/26 11:26:44;;;;;;;9.55;2.90;;;;;;;23.01;94.76;101378.97;5074483;28;20127;-58
2022/10/26 11:29:22;;;;;;;7.20;2.40;;;;;;;23.39;90.49;101385.44;5074392;28;20115;-57
2022/10/26 11:31:54;;;;;;;5.85;2.33;;;;;;;22.97;91.36;101383.81;5074106;28;20051;-57
2022/10/26 11:34:31;;;;;;;6.43;2.42;;;;;;;23.19;91.28;101385.00;5071179;28;20519;-57
2022/10/26 11:37:08;;;;;;;9.70;2.80;;;;;;;23.25;92.02;101391.53;5071264;28;20114;-57